sensor_id;sensor_type;location;lat;lon;timestamp;temperature;humidity
51637;DHT22;37713;53.254;6.460;2023-06-26T00:01:24;22.60;99.90
51637;DHT22;37713;53.254;6.460;2023-06-26T00:03:49;22.60;99.90
51637;DHT22;37713;53.254;6.460;2023-06-26T00:06:15;22.50;99.90
51637;DHT22;37713;53.254;6.460;2023-06-26T00:08:41;22.50;99.90
51637;DHT22;37713;53.254;6.460;2023-06-26T00:11:07;22.50;99.90
51637;DHT22;37713;53.254;6.460;2023-06-26T00:13:34;22.50;99.90
51637;DHT22;37713;53.254;6.460;2023-06-26T00:16:00;22.50;99.90
51637;DHT22;37713;53.254;6.460;2023-06-26T00:18:29;22.50;99.90
51637;DHT22;37713;53.254;6.460;2023-06-26T00:20:55;22.40;99.90
51637;DHT22;37713;53.254;6.460;2023-06-26T00:23:20;22.50;99.90
51637;DHT22;37713;53.254;6.460;2023-06-26T00:25:46;22.50;99.90
51637;DHT22;37713;53.254;6.460;2023-06-26T00:28:12;22.50;99.90
51637;DHT22;37713;53.254;6.460;2023-06-26T00:30:38;22.50;99.90
51637;DHT22;37713;53.254;6.460;2023-06-26T00:33:04;22.50;99.90
51637;DHT22;37713;53.254;6.460;2023-06-26T00:35:29;22.50;99.90
51637;DHT22;37713;53.254;6.460;2023-06-26T00:37:55;22.50;99.90
51637;DHT22;37713;53.254;6.460;2023-06-26T00:40:21;22.50;99.90
51637;DHT22;37713;53.254;6.460;2023-06-26T00:42:47;22.50;99.90
51637;DHT22;37713;53.254;6.460;2023-06-26T00:45:13;22.40;99.90
51637;DHT22;37713;53.254;6.460;2023-06-26T00:47:39;22.40;99.90
51637;DHT22;37713;53.254;6.460;2023-06-26T00:50:06;22.50;99.90
51637;DHT22;37713;53.254;6.460;2023-06-26T00:52:32;22.40;99.90
51637;DHT22;37713;53.254;6.460;2023-06-26T00:54:58;22.40;99.90
51637;DHT22;37713;53.254;6.460;2023-06-26T00:57:24;22.40;99.90
51637;DHT22;37713;53.254;6.460;2023-06-26T00:59:50;22.40;99.90
51637;DHT22;37713;53.254;6.460;2023-06-26T01:02:16;22.40;99.90
51637;DHT22;37713;53.254;6.460;2023-06-26T01:04:52;22.40;99.90
51637;DHT22;37713;53.254;6.460;2023-06-26T01:07:19;22.40;99.90
51637;DHT22;37713;53.254;6.460;2023-06-26T01:09:49;22.30;99.90
51637;DHT22;37713;53.254;6.460;2023-06-26T01:12:15;22.30;99.90
51637;DHT22;37713;53.254;6.460;2023-06-26T01:14:41;22.30;99.90
51637;DHT22;37713;53.254;6.460;2023-06-26T01:17:08;22.40;99.90
51637;DHT22;37713;53.254;6.460;2023-06-26T01:19:37;22.40;99.90
51637;DHT22;37713;53.254;6.460;2023-06-26T01:22:27;22.30;99.90
51637;DHT22;37713;53.254;6.460;2023-06-26T01:28:05;22.30;99.90
51637;DHT22;37713;53.254;6.460;2023-06-26T01:30:37;22.20;99.90
51637;DHT22;37713;53.254;6.460;2023-06-26T01:33:04;22.10;99.90
51637;DHT22;37713;53.254;6.460;2023-06-26T01:35:30;22.10;99.90
51637;DHT22;37713;53.254;6.460;2023-06-26T01:38:16;22.10;99.90
51637;DHT22;37713;53.254;6.460;2023-06-26T01:40:42;22.10;99.90
51637;DHT22;37713;53.254;6.460;2023-06-26T01:43:33;22.00;99.90
51637;DHT22;37713;53.254;6.460;2023-06-26T01:52:12;21.80;99.90
51637;DHT22;37713;53.254;6.460;2023-06-26T01:57:31;21.70;99.90
51637;DHT22;37713;53.254;6.460;2023-06-26T01:59:57;21.60;99.90
51637;DHT22;37713;53.254;6.460;2023-06-26T02:02:24;21.60;99.90
51637;DHT22;37713;53.254;6.460;2023-06-26T02:04:51;21.60;99.90
51637;DHT22;37713;53.254;6.460;2023-06-26T02:07:17;21.50;99.90
51637;DHT22;37713;53.254;6.460;2023-06-26T02:09:42;21.50;99.90
51637;DHT22;37713;53.254;6.460;2023-06-26T02:12:09;21.40;99.90
51637;DHT22;37713;53.254;6.460;2023-06-26T02:14:35;21.40;99.90
51637;DHT22;37713;53.254;6.460;2023-06-26T02:17:01;21.30;99.90
51637;DHT22;37713;53.254;6.460;2023-06-26T02:19:27;21.30;99.90
51637;DHT22;37713;53.254;6.460;2023-06-26T02:21:56;21.30;99.90
51637;DHT22;37713;53.254;6.460;2023-06-26T02:24:22;21.30;99.90
51637;DHT22;37713;53.254;6.460;2023-06-26T02:26:47;21.30;99.90
51637;DHT22;37713;53.254;6.460;2023-06-26T02:29:15;21.30;99.90
51637;DHT22;37713;53.254;6.460;2023-06-26T02:31:40;21.20;99.90
51637;DHT22;37713;53.254;6.460;2023-06-26T02:34:06;21.20;99.90
51637;DHT22;37713;53.254;6.460;2023-06-26T02:36:32;21.20;99.90
51637;DHT22;37713;53.254;6.460;2023-06-26T02:38:58;21.20;99.90
51637;DHT22;37713;53.254;6.460;2023-06-26T02:41:23;21.20;99.90
51637;DHT22;37713;53.254;6.460;2023-06-26T02:43:49;21.20;99.90
51637;DHT22;37713;53.254;6.460;2023-06-26T02:46:15;21.10;99.90
51637;DHT22;37713;53.254;6.460;2023-06-26T02:48:41;21.10;99.90
51637;DHT22;37713;53.254;6.460;2023-06-26T02:51:07;21.10;99.90
51637;DHT22;37713;53.254;6.460;2023-06-26T02:53:33;21.10;99.90
51637;DHT22;37713;53.254;6.460;2023-06-26T02:55:59;21.10;99.90
51637;DHT22;37713;53.254;6.460;2023-06-26T02:58:25;21.10;99.90
51637;DHT22;37713;53.254;6.460;2023-06-26T03:00:51;21.00;99.90
51637;DHT22;37713;53.254;6.460;2023-06-26T03:03:17;21.00;99.90
51637;DHT22;37713;53.254;6.460;2023-06-26T03:05:43;21.00;99.90
51637;DHT22;37713;53.254;6.460;2023-06-26T03:08:09;21.00;99.90
51637;DHT22;37713;53.254;6.460;2023-06-26T03:10:35;21.00;99.90
51637;DHT22;37713;53.254;6.460;2023-06-26T03:13:00;21.00;99.90
51637;DHT22;37713;53.254;6.460;2023-06-26T03:15:26;21.00;99.90
51637;DHT22;37713;53.254;6.460;2023-06-26T03:17:52;21.00;99.90
51637;DHT22;37713;53.254;6.460;2023-06-26T03:20:18;21.10;99.90
51637;DHT22;37713;53.254;6.460;2023-06-26T03:22:44;21.00;99.90
51637;DHT22;37713;53.254;6.460;2023-06-26T03:25:12;21.00;99.90
51637;DHT22;37713;53.254;6.460;2023-06-26T03:27:37;21.00;99.90
51637;DHT22;37713;53.254;6.460;2023-06-26T03:30:03;21.00;99.90
51637;DHT22;37713;53.254;6.460;2023-06-26T03:32:29;21.00;99.90
51637;DHT22;37713;53.254;6.460;2023-06-26T03:34:55;21.00;99.90
51637;DHT22;37713;53.254;6.460;2023-06-26T03:37:22;21.00;99.90
51637;DHT22;37713;53.254;6.460;2023-06-26T03:39:47;21.00;99.90
51637;DHT22;37713;53.254;6.460;2023-06-26T03:42:13;21.00;99.90
51637;DHT22;37713;53.254;6.460;2023-06-26T03:44:39;21.00;99.90
51637;DHT22;37713;53.254;6.460;2023-06-26T03:47:05;21.00;99.90
51637;DHT22;37713;53.254;6.460;2023-06-26T03:49:30;21.00;99.90
51637;DHT22;37713;53.254;6.460;2023-06-26T03:51:56;21.00;99.90
51637;DHT22;37713;53.254;6.460;2023-06-26T03:54:22;21.00;99.90
51637;DHT22;37713;53.254;6.460;2023-06-26T03:56:48;21.00;99.90
51637;DHT22;37713;53.254;6.460;2023-06-26T03:59:14;21.00;99.90
51637;DHT22;37713;53.254;6.460;2023-06-26T04:01:40;21.10;99.90
51637;DHT22;37713;53.254;6.460;2023-06-26T04:04:06;21.10;99.90
51637;DHT22;37713;53.254;6.460;2023-06-26T04:06:32;21.00;99.90
51637;DHT22;37713;53.254;6.460;2023-06-26T04:08:58;21.00;99.90
51637;DHT22;37713;53.254;6.460;2023-06-26T04:11:24;20.90;99.90
51637;DHT22;37713;53.254;6.460;2023-06-26T04:13:50;21.00;99.90
51637;DHT22;37713;53.254;6.460;2023-06-26T04:16:16;21.00;99.90
51637;DHT22;37713;53.254;6.460;2023-06-26T04:18:42;21.00;99.90
51637;DHT22;37713;53.254;6.460;2023-06-26T04:21:10;21.00;99.90
51637;DHT22;37713;53.254;6.460;2023-06-26T04:23:38;21.00;99.90
51637;DHT22;37713;53.254;6.460;2023-06-26T04:26:07;21.10;99.90
51637;DHT22;37713;53.254;6.460;2023-06-26T04:28:34;21.20;99.90
51637;DHT22;37713;53.254;6.460;2023-06-26T04:31:01;21.20;99.90
51637;DHT22;37713;53.254;6.460;2023-06-26T04:33:29;21.30;99.90
51637;DHT22;37713;53.254;6.460;2023-06-26T04:35:55;21.30;99.90
51637;DHT22;37713;53.254;6.460;2023-06-26T04:38:21;21.40;99.90
51637;DHT22;37713;53.254;6.460;2023-06-26T04:40:47;21.40;99.90
51637;DHT22;37713;53.254;6.460;2023-06-26T04:43:14;21.50;99.90
51637;DHT22;37713;53.254;6.460;2023-06-26T04:45:40;21.50;99.90
51637;DHT22;37713;53.254;6.460;2023-06-26T04:48:05;21.50;99.90
51637;DHT22;37713;53.254;6.460;2023-06-26T04:50:33;21.50;99.90
51637;DHT22;37713;53.254;6.460;2023-06-26T04:52:59;21.50;99.90
51637;DHT22;37713;53.254;6.460;2023-06-26T04:55:25;21.40;99.90
51637;DHT22;37713;53.254;6.460;2023-06-26T04:57:51;21.40;99.90
51637;DHT22;37713;53.254;6.460;2023-06-26T05:00:18;21.40;99.90
51637;DHT22;37713;53.254;6.460;2023-06-26T05:02:43;21.30;99.90
51637;DHT22;37713;53.254;6.460;2023-06-26T05:05:09;21.20;99.90
51637;DHT22;37713;53.254;6.460;2023-06-26T05:07:36;21.20;99.90
51637;DHT22;37713;53.254;6.460;2023-06-26T05:10:02;21.10;99.90
51637;DHT22;37713;53.254;6.460;2023-06-26T05:12:28;21.10;99.90
51637;DHT22;37713;53.254;6.460;2023-06-26T05:14:53;21.00;99.90
51637;DHT22;37713;53.254;6.460;2023-06-26T05:17:19;20.90;99.90
51637;DHT22;37713;53.254;6.460;2023-06-26T05:19:45;20.80;99.90
51637;DHT22;37713;53.254;6.460;2023-06-26T05:22:12;20.70;99.90
51637;DHT22;37713;53.254;6.460;2023-06-26T05:24:40;20.60;99.90
51637;DHT22;37713;53.254;6.460;2023-06-26T05:27:08;20.50;99.90
51637;DHT22;37713;53.254;6.460;2023-06-26T05:29:34;20.50;99.90
51637;DHT22;37713;53.254;6.460;2023-06-26T05:32:00;20.40;99.90
51637;DHT22;37713;53.254;6.460;2023-06-26T05:34:27;20.40;99.90
51637;DHT22;37713;53.254;6.460;2023-06-26T05:36:58;20.30;99.90
51637;DHT22;37713;53.254;6.460;2023-06-26T05:39:25;20.30;99.90
51637;DHT22;37713;53.254;6.460;2023-06-26T05:41:51;20.30;99.90
51637;DHT22;37713;53.254;6.460;2023-06-26T05:44:17;20.30;99.90
51637;DHT22;37713;53.254;6.460;2023-06-26T05:46:46;20.20;99.90
51637;DHT22;37713;53.254;6.460;2023-06-26T05:49:12;20.30;99.90
51637;DHT22;37713;53.254;6.460;2023-06-26T05:51:38;20.30;99.90
51637;DHT22;37713;53.254;6.460;2023-06-26T05:54:04;20.30;99.90
51637;DHT22;37713;53.254;6.460;2023-06-26T05:56:30;20.30;99.90
51637;DHT22;37713;53.254;6.460;2023-06-26T05:58:57;20.30;99.90
51637;DHT22;37713;53.254;6.460;2023-06-26T06:01:23;20.30;99.90
51637;DHT22;37713;53.254;6.460;2023-06-26T06:03:50;20.50;99.90
51637;DHT22;37713;53.254;6.460;2023-06-26T06:06:15;20.50;99.90
51637;DHT22;37713;53.254;6.460;2023-06-26T06:08:41;20.60;99.90
51637;DHT22;37713;53.254;6.460;2023-06-26T06:11:07;20.60;99.90
51637;DHT22;37713;53.254;6.460;2023-06-26T06:13:33;20.60;99.90
51637;DHT22;37713;53.254;6.460;2023-06-26T06:15:59;20.60;99.90
51637;DHT22;37713;53.254;6.460;2023-06-26T06:18:25;20.70;99.90
51637;DHT22;37713;53.254;6.460;2023-06-26T06:20:51;20.70;99.90
51637;DHT22;37713;53.254;6.460;2023-06-26T06:23:16;20.70;99.90
51637;DHT22;37713;53.254;6.460;2023-06-26T06:25:42;20.80;99.90
51637;DHT22;37713;53.254;6.460;2023-06-26T06:28:08;20.90;99.90
51637;DHT22;37713;53.254;6.460;2023-06-26T06:30:34;21.20;99.90
51637;DHT22;37713;53.254;6.460;2023-06-26T06:32:59;21.80;99.90
51637;DHT22;37713;53.254;6.460;2023-06-26T06:35:25;22.60;99.90
51637;DHT22;37713;53.254;6.460;2023-06-26T06:37:51;23.30;99.90
51637;DHT22;37713;53.254;6.460;2023-06-26T06:40:17;23.90;99.90
51637;DHT22;37713;53.254;6.460;2023-06-26T06:42:43;23.70;99.90
51637;DHT22;37713;53.254;6.460;2023-06-26T06:45:09;23.50;99.90
51637;DHT22;37713;53.254;6.460;2023-06-26T06:47:35;23.20;99.90
51637;DHT22;37713;53.254;6.460;2023-06-26T06:50:01;23.30;99.90
51637;DHT22;37713;53.254;6.460;2023-06-26T06:52:35;23.40;99.90
51637;DHT22;37713;53.254;6.460;2023-06-26T06:55:01;23.40;99.90
51637;DHT22;37713;53.254;6.460;2023-06-26T06:57:30;23.40;99.90
51637;DHT22;37713;53.254;6.460;2023-06-26T07:00:02;23.50;99.90
51637;DHT22;37713;53.254;6.460;2023-06-26T07:02:30;23.70;99.90
51637;DHT22;37713;53.254;6.460;2023-06-26T07:04:55;23.70;99.90
51637;DHT22;37713;53.254;6.460;2023-06-26T07:07:21;23.90;99.90
51637;DHT22;37713;53.254;6.460;2023-06-26T07:09:47;24.00;99.90
51637;DHT22;37713;53.254;6.460;2023-06-26T07:12:13;23.80;99.90
51637;DHT22;37713;53.254;6.460;2023-06-26T07:14:39;23.70;99.90
51637;DHT22;37713;53.254;6.460;2023-06-26T07:17:05;23.70;99.90
51637;DHT22;37713;53.254;6.460;2023-06-26T07:19:31;23.70;99.90
51637;DHT22;37713;53.254;6.460;2023-06-26T07:21:57;24.00;99.90
51637;DHT22;37713;53.254;6.460;2023-06-26T07:24:23;24.20;99.90
51637;DHT22;37713;53.254;6.460;2023-06-26T07:26:49;24.20;99.90
51637;DHT22;37713;53.254;6.460;2023-06-26T07:29:14;24.40;99.90
51637;DHT22;37713;53.254;6.460;2023-06-26T07:31:40;24.30;99.90
51637;DHT22;37713;53.254;6.460;2023-06-26T07:34:06;24.40;99.90
51637;DHT22;37713;53.254;6.460;2023-06-26T07:36:32;24.60;99.90
51637;DHT22;37713;53.254;6.460;2023-06-26T07:38:57;24.70;99.90
51637;DHT22;37713;53.254;6.460;2023-06-26T07:41:23;24.80;99.90
51637;DHT22;37713;53.254;6.460;2023-06-26T07:43:49;24.70;99.90
51637;DHT22;37713;53.254;6.460;2023-06-26T07:46:15;24.40;99.90
51637;DHT22;37713;53.254;6.460;2023-06-26T07:48:41;24.10;99.90
51637;DHT22;37713;53.254;6.460;2023-06-26T07:51:06;23.80;99.90
51637;DHT22;37713;53.254;6.460;2023-06-26T07:53:32;23.50;99.90
51637;DHT22;37713;53.254;6.460;2023-06-26T07:55:58;23.40;99.90
51637;DHT22;37713;53.254;6.460;2023-06-26T07:58:25;23.50;99.90
51637;DHT22;37713;53.254;6.460;2023-06-26T08:00:51;23.40;99.90
51637;DHT22;37713;53.254;6.460;2023-06-26T08:03:17;23.20;99.90
51637;DHT22;37713;53.254;6.460;2023-06-26T08:05:42;23.10;99.90
51637;DHT22;37713;53.254;6.460;2023-06-26T08:08:08;23.10;99.90
51637;DHT22;37713;53.254;6.460;2023-06-26T08:10:34;22.90;99.90
51637;DHT22;37713;53.254;6.460;2023-06-26T08:13:00;22.80;99.90
51637;DHT22;37713;53.254;6.460;2023-06-26T08:15:26;22.90;99.90
51637;DHT22;37713;53.254;6.460;2023-06-26T08:17:51;22.90;99.90
51637;DHT22;37713;53.254;6.460;2023-06-26T08:20:17;22.80;99.90
51637;DHT22;37713;53.254;6.460;2023-06-26T08:22:45;23.10;99.90
51637;DHT22;37713;53.254;6.460;2023-06-26T08:25:13;23.20;99.90
51637;DHT22;37713;53.254;6.460;2023-06-26T08:27:42;23.30;99.90
51637;DHT22;37713;53.254;6.460;2023-06-26T08:30:08;23.40;99.90
51637;DHT22;37713;53.254;6.460;2023-06-26T08:32:33;23.40;99.90
51637;DHT22;37713;53.254;6.460;2023-06-26T08:34:59;23.30;99.90
51637;DHT22;37713;53.254;6.460;2023-06-26T08:37:25;23.10;99.90
51637;DHT22;37713;53.254;6.460;2023-06-26T08:39:51;23.10;99.90
51637;DHT22;37713;53.254;6.460;2023-06-26T08:42:17;22.90;99.90
51637;DHT22;37713;53.254;6.460;2023-06-26T08:44:43;23.10;99.90
51637;DHT22;37713;53.254;6.460;2023-06-26T08:47:11;23.30;99.90
51637;DHT22;37713;53.254;6.460;2023-06-26T08:49:46;23.50;99.90
51637;DHT22;37713;53.254;6.460;2023-06-26T08:52:30;23.50;99.90
51637;DHT22;37713;53.254;6.460;2023-06-26T08:54:59;23.40;99.90
51637;DHT22;37713;53.254;6.460;2023-06-26T08:57:28;23.40;99.90
51637;DHT22;37713;53.254;6.460;2023-06-26T08:59:56;23.30;99.90
51637;DHT22;37713;53.254;6.460;2023-06-26T09:02:22;23.30;99.90
51637;DHT22;37713;53.254;6.460;2023-06-26T09:04:48;23.30;99.90
51637;DHT22;37713;53.254;6.460;2023-06-26T09:07:15;23.20;99.90
51637;DHT22;37713;53.254;6.460;2023-06-26T09:09:41;23.10;99.90
51637;DHT22;37713;53.254;6.460;2023-06-26T09:12:08;23.10;99.90
51637;DHT22;37713;53.254;6.460;2023-06-26T09:14:37;23.30;99.90
51637;DHT22;37713;53.254;6.460;2023-06-26T09:17:03;23.30;99.90
51637;DHT22;37713;53.254;6.460;2023-06-26T09:19:29;23.20;99.90
51637;DHT22;37713;53.254;6.460;2023-06-26T09:21:55;23.10;99.90
51637;DHT22;37713;53.254;6.460;2023-06-26T09:24:22;23.00;99.90
51637;DHT22;37713;53.254;6.460;2023-06-26T09:26:48;23.10;99.90
51637;DHT22;37713;53.254;6.460;2023-06-26T09:29:15;23.30;99.90
51637;DHT22;37713;53.254;6.460;2023-06-26T09:31:44;23.50;99.90
51637;DHT22;37713;53.254;6.460;2023-06-26T09:34:10;23.40;99.90
51637;DHT22;37713;53.254;6.460;2023-06-26T09:36:36;23.40;99.90
51637;DHT22;37713;53.254;6.460;2023-06-26T09:39:03;23.20;99.90
51637;DHT22;37713;53.254;6.460;2023-06-26T09:41:30;23.40;99.90
51637;DHT22;37713;53.254;6.460;2023-06-26T09:44:01;23.50;99.90
51637;DHT22;37713;53.254;6.460;2023-06-26T09:46:29;23.70;99.90
51637;DHT22;37713;53.254;6.460;2023-06-26T09:49:09;23.70;99.90
51637;DHT22;37713;53.254;6.460;2023-06-26T09:51:40;23.70;99.90
51637;DHT22;37713;53.254;6.460;2023-06-26T09:54:06;23.90;99.90
51637;DHT22;37713;53.254;6.460;2023-06-26T09:56:33;23.80;99.90
51637;DHT22;37713;53.254;6.460;2023-06-26T09:59:01;23.90;99.90
51637;DHT22;37713;53.254;6.460;2023-06-26T10:01:28;23.90;99.90
51637;DHT22;37713;53.254;6.460;2023-06-26T10:03:58;23.90;99.90
51637;DHT22;37713;53.254;6.460;2023-06-26T10:06:28;23.90;99.90
51637;DHT22;37713;53.254;6.460;2023-06-26T10:08:56;24.10;99.90
51637;DHT22;37713;53.254;6.460;2023-06-26T10:11:25;24.10;99.90
51637;DHT22;37713;53.254;6.460;2023-06-26T10:13:58;24.20;99.90
51637;DHT22;37713;53.254;6.460;2023-06-26T10:16:26;24.20;99.90
51637;DHT22;37713;53.254;6.460;2023-06-26T10:18:55;24.20;99.90
51637;DHT22;37713;53.254;6.460;2023-06-26T10:21:24;24.10;99.90
51637;DHT22;37713;53.254;6.460;2023-06-26T10:23:51;23.90;99.90
51637;DHT22;37713;53.254;6.460;2023-06-26T10:26:19;24.00;99.90
51637;DHT22;37713;53.254;6.460;2023-06-26T10:28:48;24.10;99.90
51637;DHT22;37713;53.254;6.460;2023-06-26T10:31:21;24.20;99.90
51637;DHT22;37713;53.254;6.460;2023-06-26T10:33:49;24.30;99.90
51637;DHT22;37713;53.254;6.460;2023-06-26T10:36:29;24.30;99.90
51637;DHT22;37713;53.254;6.460;2023-06-26T10:38:58;24.20;99.90
51637;DHT22;37713;53.254;6.460;2023-06-26T10:41:24;24.30;99.90
51637;DHT22;37713;53.254;6.460;2023-06-26T10:44:11;24.40;99.90
51637;DHT22;37713;53.254;6.460;2023-06-26T10:47:06;24.50;99.90
51637;DHT22;37713;53.254;6.460;2023-06-26T10:49:32;24.50;99.90
51637;DHT22;37713;53.254;6.460;2023-06-26T10:52:02;24.50;99.90
51637;DHT22;37713;53.254;6.460;2023-06-26T10:54:30;24.30;99.90
51637;DHT22;37713;53.254;6.460;2023-06-26T10:56:56;24.10;99.90
51637;DHT22;37713;53.254;6.460;2023-06-26T10:59:26;23.90;99.90
51637;DHT22;37713;53.254;6.460;2023-06-26T11:02:03;23.90;99.90
51637;DHT22;37713;53.254;6.460;2023-06-26T11:04:47;23.80;99.90
51637;DHT22;37713;53.254;6.460;2023-06-26T11:07:23;23.90;99.90
51637;DHT22;37713;53.254;6.460;2023-06-26T11:10:08;24.10;99.90
51637;DHT22;37713;53.254;6.460;2023-06-26T11:12:44;24.00;99.90
51637;DHT22;37713;53.254;6.460;2023-06-26T11:15:13;24.10;99.90
51637;DHT22;37713;53.254;6.460;2023-06-26T11:17:41;24.20;99.90
51637;DHT22;37713;53.254;6.460;2023-06-26T11:20:12;24.40;99.90
51637;DHT22;37713;53.254;6.460;2023-06-26T11:22:40;24.40;99.90
51637;DHT22;37713;53.254;6.460;2023-06-26T11:25:07;24.30;99.90
51637;DHT22;37713;53.254;6.460;2023-06-26T11:27:40;24.40;99.90
51637;DHT22;37713;53.254;6.460;2023-06-26T11:30:08;24.60;99.90
51637;DHT22;37713;53.254;6.460;2023-06-26T11:32:36;24.60;99.90
51637;DHT22;37713;53.254;6.460;2023-06-26T11:35:02;24.60;99.90
51637;DHT22;37713;53.254;6.460;2023-06-26T11:37:31;24.40;99.90
51637;DHT22;37713;53.254;6.460;2023-06-26T11:39:57;24.30;99.90
51637;DHT22;37713;53.254;6.460;2023-06-26T11:42:24;24.30;99.90
51637;DHT22;37713;53.254;6.460;2023-06-26T11:44:51;24.30;99.90
51637;DHT22;37713;53.254;6.460;2023-06-26T11:47:19;24.30;99.90
51637;DHT22;37713;53.254;6.460;2023-06-26T11:49:46;24.10;99.90
51637;DHT22;37713;53.254;6.460;2023-06-26T11:52:13;24.00;99.90
51637;DHT22;37713;53.254;6.460;2023-06-26T11:54:39;24.00;99.90
51637;DHT22;37713;53.254;6.460;2023-06-26T11:57:05;24.20;99.90
51637;DHT22;37713;53.254;6.460;2023-06-26T11:59:37;24.30;99.90
51637;DHT22;37713;53.254;6.460;2023-06-26T12:02:10;24.30;99.90
51637;DHT22;37713;53.254;6.460;2023-06-26T12:04:43;24.30;99.90
51637;DHT22;37713;53.254;6.460;2023-06-26T12:07:10;24.40;99.90
51637;DHT22;37713;53.254;6.460;2023-06-26T12:09:42;24.30;99.90
51637;DHT22;37713;53.254;6.460;2023-06-26T12:12:10;24.10;99.90
51637;DHT22;37713;53.254;6.460;2023-06-26T12:14:36;24.00;99.90
51637;DHT22;37713;53.254;6.460;2023-06-26T12:17:10;23.90;99.90
51637;DHT22;37713;53.254;6.460;2023-06-26T12:19:42;23.90;99.90
51637;DHT22;37713;53.254;6.460;2023-06-26T12:22:08;23.80;99.90
51637;DHT22;37713;53.254;6.460;2023-06-26T12:24:37;23.80;99.90
51637;DHT22;37713;53.254;6.460;2023-06-26T12:27:07;23.80;99.90
51637;DHT22;37713;53.254;6.460;2023-06-26T12:29:33;23.80;99.90
51637;DHT22;37713;53.254;6.460;2023-06-26T12:32:00;23.80;99.90
51637;DHT22;37713;53.254;6.460;2023-06-26T12:34:34;23.90;99.90
51637;DHT22;37713;53.254;6.460;2023-06-26T12:37:05;24.00;99.90
51637;DHT22;37713;53.254;6.460;2023-06-26T12:42:25;24.10;99.90
51637;DHT22;37713;53.254;6.460;2023-06-26T12:44:52;23.90;99.90
51637;DHT22;37713;53.254;6.460;2023-06-26T12:47:19;23.70;99.90
51637;DHT22;37713;53.254;6.460;2023-06-26T12:49:49;23.70;99.90
51637;DHT22;37713;53.254;6.460;2023-06-26T12:52:16;23.80;99.90
51637;DHT22;37713;53.254;6.460;2023-06-26T12:54:44;23.90;99.90
51637;DHT22;37713;53.254;6.460;2023-06-26T12:57:10;23.90;99.90
51637;DHT22;37713;53.254;6.460;2023-06-26T12:59:40;23.90;99.90
51637;DHT22;37713;53.254;6.460;2023-06-26T13:02:06;23.70;99.90
51637;DHT22;37713;53.254;6.460;2023-06-26T13:04:33;23.60;99.90
51637;DHT22;37713;53.254;6.460;2023-06-26T13:06:59;23.60;99.90
51637;DHT22;37713;53.254;6.460;2023-06-26T13:09:25;23.60;99.90
51637;DHT22;37713;53.254;6.460;2023-06-26T13:11:52;23.70;99.90
51637;DHT22;37713;53.254;6.460;2023-06-26T13:14:18;23.80;99.90
51637;DHT22;37713;53.254;6.460;2023-06-26T13:16:44;23.80;99.90
51637;DHT22;37713;53.254;6.460;2023-06-26T13:19:09;23.90;99.90
51637;DHT22;37713;53.254;6.460;2023-06-26T13:21:36;23.80;99.90
51637;DHT22;37713;53.254;6.460;2023-06-26T13:24:02;23.90;99.90
51637;DHT22;37713;53.254;6.460;2023-06-26T13:26:29;24.10;99.90
51637;DHT22;37713;53.254;6.460;2023-06-26T13:28:55;24.40;99.90
51637;DHT22;37713;53.254;6.460;2023-06-26T13:31:22;24.40;99.90
51637;DHT22;37713;53.254;6.460;2023-06-26T13:33:48;24.30;99.90
51637;DHT22;37713;53.254;6.460;2023-06-26T13:36:18;24.10;99.90
51637;DHT22;37713;53.254;6.460;2023-06-26T13:38:45;24.00;99.90
51637;DHT22;37713;53.254;6.460;2023-06-26T13:41:11;24.00;99.90
51637;DHT22;37713;53.254;6.460;2023-06-26T13:43:36;23.80;99.90
51637;DHT22;37713;53.254;6.460;2023-06-26T13:46:02;23.50;99.90
51637;DHT22;37713;53.254;6.460;2023-06-26T13:48:29;23.40;99.90
51637;DHT22;37713;53.254;6.460;2023-06-26T13:50:55;23.10;99.90
51637;DHT22;37713;53.254;6.460;2023-06-26T13:53:22;22.90;99.90
51637;DHT22;37713;53.254;6.460;2023-06-26T13:55:48;22.70;99.90
51637;DHT22;37713;53.254;6.460;2023-06-26T13:58:14;22.60;99.90
51637;DHT22;37713;53.254;6.460;2023-06-26T14:00:40;22.40;99.90
51637;DHT22;37713;53.254;6.460;2023-06-26T14:03:07;22.40;99.90
51637;DHT22;37713;53.254;6.460;2023-06-26T14:05:36;22.40;99.90
51637;DHT22;37713;53.254;6.460;2023-06-26T14:08:03;22.50;99.90
51637;DHT22;37713;53.254;6.460;2023-06-26T14:10:30;22.60;99.90
51637;DHT22;37713;53.254;6.460;2023-06-26T14:12:56;22.60;99.90
51637;DHT22;37713;53.254;6.460;2023-06-26T14:15:22;22.60;99.90
51637;DHT22;37713;53.254;6.460;2023-06-26T14:17:48;22.50;99.90
51637;DHT22;37713;53.254;6.460;2023-06-26T14:20:16;22.50;99.90
51637;DHT22;37713;53.254;6.460;2023-06-26T14:22:43;22.40;99.90
51637;DHT22;37713;53.254;6.460;2023-06-26T14:25:10;22.20;99.90
51637;DHT22;37713;53.254;6.460;2023-06-26T14:27:37;22.00;99.90
51637;DHT22;37713;53.254;6.460;2023-06-26T14:30:04;21.90;99.90
51637;DHT22;37713;53.254;6.460;2023-06-26T14:32:30;21.60;99.90
51637;DHT22;37713;53.254;6.460;2023-06-26T14:34:56;21.60;99.90
51637;DHT22;37713;53.254;6.460;2023-06-26T14:37:22;21.70;99.90
51637;DHT22;37713;53.254;6.460;2023-06-26T14:39:49;21.70;99.90
51637;DHT22;37713;53.254;6.460;2023-06-26T14:42:15;21.70;99.90
51637;DHT22;37713;53.254;6.460;2023-06-26T14:44:41;21.60;99.90
51637;DHT22;37713;53.254;6.460;2023-06-26T14:47:07;21.60;99.90
51637;DHT22;37713;53.254;6.460;2023-06-26T14:49:33;21.60;99.90
51637;DHT22;37713;53.254;6.460;2023-06-26T14:51:59;21.50;99.90
51637;DHT22;37713;53.254;6.460;2023-06-26T14:54:25;21.60;99.90
51637;DHT22;37713;53.254;6.460;2023-06-26T14:56:51;21.50;99.90
51637;DHT22;37713;53.254;6.460;2023-06-26T14:59:16;21.50;99.90
51637;DHT22;37713;53.254;6.460;2023-06-26T15:01:42;21.50;99.90
51637;DHT22;37713;53.254;6.460;2023-06-26T15:04:08;21.40;99.90
51637;DHT22;37713;53.254;6.460;2023-06-26T15:06:35;21.50;99.90
51637;DHT22;37713;53.254;6.460;2023-06-26T15:09:01;21.60;99.90
51637;DHT22;37713;53.254;6.460;2023-06-26T15:11:29;21.50;99.90
51637;DHT22;37713;53.254;6.460;2023-06-26T15:13:55;21.60;99.90
51637;DHT22;37713;53.254;6.460;2023-06-26T15:16:21;21.80;99.90
51637;DHT22;37713;53.254;6.460;2023-06-26T15:18:47;21.80;99.90
51637;DHT22;37713;53.254;6.460;2023-06-26T15:21:13;21.80;99.90
51637;DHT22;37713;53.254;6.460;2023-06-26T15:23:39;21.80;99.90
51637;DHT22;37713;53.254;6.460;2023-06-26T15:26:05;21.90;99.90
51637;DHT22;37713;53.254;6.460;2023-06-26T15:28:31;21.90;99.90
51637;DHT22;37713;53.254;6.460;2023-06-26T15:30:57;21.90;99.90
51637;DHT22;37713;53.254;6.460;2023-06-26T15:33:23;21.80;99.90
51637;DHT22;37713;53.254;6.460;2023-06-26T15:35:48;22.00;99.90
51637;DHT22;37713;53.254;6.460;2023-06-26T15:38:14;22.30;99.90
51637;DHT22;37713;53.254;6.460;2023-06-26T15:40:40;22.30;99.90
51637;DHT22;37713;53.254;6.460;2023-06-26T15:43:06;22.20;99.90
51637;DHT22;37713;53.254;6.460;2023-06-26T15:45:31;22.30;99.90